Time;durP1;ratioP1;P1;durP2;ratioP2;P2;SDS_P1;SDS_P2;PMS_P1;PMS_P2;Temp;Humidity;BMP_temperature;BMP_pressure;BME280_temperature;BME280_humidity;BME280_pressure;Samples;Min_cycle;Max_cycle;Signal;HPM_P1;HPM_P2
2022/07/12 00:01:37;;;;;;;5.22;3.35;;;;;;;15.86;74.22;102156.25;4965862;28;20101;-73
2022/07/12 00:04:03;;;;;;;5.20;3.03;;;;;;;15.83;74.01;102153.81;4963780;28;20019;-70
2022/07/12 00:06:28;;;;;;;5.57;3.40;;;;;;;15.63;74.87;102155.06;4968255;28;20121;-70
2022/07/12 00:08:54;;;;;;;7.22;3.97;;;;;;;15.70;74.75;102150.66;4978229;28;20026;-72
2022/07/12 00:11:19;;;;;;;4.38;3.47;;;;;;;15.55;75.39;102144.06;4966303;28;20027;-70
2022/07/12 00:13:45;;;;;;;6.65;3.78;;;;;;;15.62;75.22;102139.69;4975552;28;20018;-72
2022/07/12 00:16:11;;;;;;;4.97;3.42;;;;;;;15.60;74.98;102144.44;4973921;28;20053;-72
2022/07/12 00:18:36;;;;;;;4.53;3.17;;;;;;;15.53;75.44;102143.38;4974084;28;20023;-73
2022/07/12 00:21:02;;;;;;;5.30;3.03;;;;;;;15.57;75.21;102139.28;4986153;28;20030;-72
2022/07/12 00:23:27;;;;;;;7.30;3.58;;;;;;;15.52;75.32;102141.63;4960595;28;20082;-70
2022/07/12 00:25:52;;;;;;;5.97;3.65;;;;;;;15.69;74.63;102132.56;4966596;28;20019;-72
2022/07/12 00:28:18;;;;;;;10.27;4.40;;;;;;;15.48;75.40;102131.03;4966689;28;20031;-70
2022/07/12 00:30:43;;;;;;;3.45;3.13;;;;;;;15.54;74.83;102128.69;4993600;28;20026;-70
2022/07/12 00:33:08;;;;;;;5.75;3.25;;;;;;;15.70;74.51;102128.81;4990475;28;20034;-70
2022/07/12 00:35:34;;;;;;;4.85;3.67;;;;;;;15.59;74.90;102120.91;4970082;28;20022;-70
2022/07/12 00:37:59;;;;;;;10.45;4.20;;;;;;;15.46;75.05;102111.25;4966378;28;20022;-70
2022/07/12 00:40:25;;;;;;;9.18;3.88;;;;;;;15.58;74.70;102108.22;4979932;28;20030;-70
2022/07/12 00:42:50;;;;;;;7.38;4.03;;;;;;;15.33;75.46;102110.81;4980515;28;20026;-72
2022/07/12 00:45:15;;;;;;;9.70;3.80;;;;;;;15.32;75.64;102109.13;4987718;28;20089;-72
2022/07/12 00:47:46;;;;;;;6.22;3.55;;;;;;;15.35;75.59;102108.78;4971132;28;20383;-73
2022/07/12 00:50:19;;;;;;;10.00;3.65;;;;;;;15.38;75.41;102113.91;4970429;28;20044;-70
2022/07/12 00:52:47;;;;;;;5.50;3.55;;;;;;;15.36;75.44;102109.63;4984925;28;20018;-70
2022/07/12 00:55:14;;;;;;;6.43;3.97;;;;;;;15.48;74.80;102106.47;4969312;28;20023;-70
2022/07/12 00:57:43;;;;;;;6.20;3.30;;;;;;;15.40;75.22;102106.44;4986364;28;20068;-70
2022/07/12 01:00:10;;;;;;;5.32;3.70;;;;;;;15.44;74.75;102102.34;4986978;28;20022;-70
2022/07/12 01:02:36;;;;;;;6.32;3.40;;;;;;;15.37;75.26;102106.72;4983087;28;20018;-70
2022/07/12 01:05:04;;;;;;;5.95;4.20;;;;;;;15.21;75.46;102106.63;4975819;28;20027;-71
2022/07/12 01:07:30;;;;;;;10.95;4.20;;;;;;;15.19;75.57;102103.19;4978953;28;20023;-71
2022/07/12 01:09:56;;;;;;;9.75;4.00;;;;;;;15.20;75.36;102099.47;4976243;28;20026;-71
2022/07/12 01:12:23;;;;;;;6.63;3.70;;;;;;;15.24;75.07;102106.28;4967075;28;20057;-70
2022/07/12 01:14:49;;;;;;;8.82;3.92;;;;;;;15.18;75.78;102096.00;4973293;28;20113;-71
2022/07/12 01:17:18;;;;;;;4.63;3.50;;;;;;;15.12;75.47;102105.69;4971834;28;20022;-71
2022/07/12 01:19:44;;;;;;;5.55;3.58;;;;;;;15.18;75.09;102107.78;4977945;28;20030;-71
2022/07/12 01:22:10;;;;;;;5.03;3.65;;;;;;;15.16;75.35;102098.06;4990034;28;20033;-71
2022/07/12 01:24:36;;;;;;;6.57;4.28;;;;;;;15.18;75.46;102107.78;4958289;28;20026;-71
2022/07/12 01:27:03;;;;;;;8.68;5.55;;;;;;;15.23;75.13;102099.13;4991798;28;20030;-71
2022/07/12 01:29:29;;;;;;;6.15;3.78;;;;;;;15.25;74.59;102102.53;4984889;28;20034;-71
2022/07/12 01:31:55;;;;;;;5.03;3.95;;;;;;;15.18;74.96;102102.31;4973591;28;20472;-70
2022/07/12 01:34:21;;;;;;;7.55;4.22;;;;;;;15.17;75.36;102107.94;4960140;28;20137;-71
2022/07/12 01:36:47;;;;;;;12.52;4.55;;;;;;;15.14;75.13;102105.53;4972358;28;20023;-71
2022/07/12 01:39:12;;;;;;;8.38;4.60;;;;;;;15.10;75.30;102098.69;4975390;28;20030;-71
2022/07/12 01:41:38;;;;;;;6.72;4.70;;;;;;;15.25;75.03;102093.50;4970170;28;20031;-71
2022/07/12 01:44:03;;;;;;;9.77;5.30;;;;;;;14.96;75.88;102096.53;4959248;28;20038;-71
2022/07/12 01:46:28;;;;;;;7.75;4.47;;;;;;;15.08;75.39;102095.28;4960936;28;20470;-71
2022/07/12 01:48:54;;;;;;;13.18;5.30;;;;;;;15.03;75.69;102086.69;4967147;28;20018;-71
2022/07/12 01:51:19;;;;;;;14.40;5.00;;;;;;;14.92;75.79;102095.97;4972668;28;20026;-71
2022/07/12 01:53:44;;;;;;;7.85;4.18;;;;;;;14.99;75.36;102088.00;4961679;28;20026;-71
2022/07/12 01:56:10;;;;;;;7.53;4.75;;;;;;;15.01;75.09;102086.00;4988372;28;20022;-71
2022/07/12 01:58:35;;;;;;;4.97;3.53;;;;;;;15.11;73.90;102089.47;4975535;28;20081;-71
2022/07/12 02:01:01;;;;;;;5.00;3.85;;;;;;;15.13;73.60;102091.06;4976175;28;20029;-71
2022/07/12 02:03:26;;;;;;;5.13;3.38;;;;;;;14.81;75.00;102099.81;4978827;28;20034;-70
2022/07/12 02:05:51;;;;;;;6.93;4.78;;;;;;;14.75;75.72;102094.97;4961396;28;20038;-70
2022/07/12 02:08:17;;;;;;;6.90;4.10;;;;;;;14.77;75.49;102098.41;4973052;28;20049;-71
2022/07/12 02:10:43;;;;;;;13.88;4.80;;;;;;;14.76;75.77;102102.13;4964165;28;20106;-71
2022/07/12 02:13:08;;;;;;;6.32;4.47;;;;;;;14.48;77.21;102100.50;4978141;28;20033;-70
2022/07/12 02:15:34;;;;;;;5.78;4.07;;;;;;;14.62;77.02;102105.41;4958608;28;20031;-72
2022/07/12 02:17:59;;;;;;;7.38;4.63;;;;;;;14.57;76.97;102113.19;4982806;28;20030;-72
2022/07/12 02:20:25;;;;;;;7.65;4.38;;;;;;;14.66;75.75;102117.69;4963501;28;20086;-72
2022/07/12 02:22:50;;;;;;;9.75;5.18;;;;;;;14.46;77.47;102110.63;4960096;28;20026;-72
2022/07/12 02:25:16;;;;;;;10.15;4.53;;;;;;;14.57;76.42;102107.72;4967258;28;20029;-72
2022/07/12 02:27:42;;;;;;;6.80;3.90;;;;;;;14.43;77.07;102116.41;4992620;28;20065;-72
2022/07/12 02:30:10;;;;;;;6.43;4.90;;;;;;;14.43;77.46;102116.41;4981155;28;20085;-72
2022/07/12 02:32:36;;;;;;;5.68;4.00;;;;;;;14.42;77.22;102120.16;4958559;28;20034;-72
2022/07/12 02:35:02;;;;;;;9.70;5.50;;;;;;;14.40;77.32;102123.84;4975454;28;20033;-72
2022/07/12 02:37:27;;;;;;;6.63;4.70;;;;;;;14.50;76.52;102123.00;4978310;28;20089;-72
2022/07/12 02:40:53;;;;;;;6.60;3.90;;;;;;;14.38;76.01;102131.34;4962483;28;20118;-72
2022/07/12 02:42:39;;;;;;;6.18;5.03;;;;;;;14.49;76.09;102126.72;4987063;28;20129;-72
2022/07/12 02:45:05;;;;;;;7.68;5.00;;;;;;;14.48;76.46;102125.88;4986271;28;20042;-71
2022/07/12 02:47:30;;;;;;;8.57;5.30;;;;;;;14.32;77.03;102126.50;4971371;28;20407;-72
2022/07/12 02:49:55;;;;;;;13.30;6.20;;;;;;;14.48;76.84;102146.81;4979053;28;20070;-72
2022/07/12 02:52:21;;;;;;;9.05;5.57;;;;;;;14.51;76.40;102143.78;4985857;28;20030;-73
2022/07/12 02:54:46;;;;;;;6.15;5.03;;;;;;;14.51;76.60;102157.41;4966953;28;20088;-72
2022/07/12 02:57:11;;;;;;;13.20;6.28;;;;;;;14.54;76.64;102157.09;4964517;28;20916;-72
2022/07/12 02:59:37;;;;;;;12.73;5.72;;;;;;;14.40;76.98;102156.56;4967668;28;20034;-73
2022/07/12 03:02:02;;;;;;;8.57;5.68;;;;;;;14.40;77.00;102153.84;4959151;28;20027;-72
2022/07/12 03:04:27;;;;;;;11.60;6.28;;;;;;;14.37;76.84;102162.31;4980662;28;20121;-72
2022/07/12 03:06:53;;;;;;;8.25;5.97;;;;;;;14.37;76.97;102166.91;4965011;28;20031;-72
2022/07/12 03:09:18;;;;;;;8.25;5.72;;;;;;;14.32;77.00;102175.53;4980383;28;20026;-72
2022/07/12 03:11:43;;;;;;;9.23;5.97;;;;;;;14.37;76.89;102178.66;4965129;28;20085;-72
2022/07/12 03:14:09;;;;;;;9.98;5.30;;;;;;;14.31;76.43;102178.41;4972224;28;20053;-72
2022/07/12 03:16:34;;;;;;;10.18;5.50;;;;;;;14.44;76.95;102178.06;4966369;28;20368;-72
2022/07/12 03:19:00;;;;;;;9.00;5.68;;;;;;;14.46;76.11;102181.50;4983384;28;20061;-72
2022/07/12 03:21:25;;;;;;;11.13;4.63;;;;;;;14.39;76.49;102184.81;4969321;28;20038;-72
2022/07/12 03:23:50;;;;;;;7.72;5.22;;;;;;;14.49;75.72;102189.41;4965752;28;20053;-72
2022/07/12 03:26:16;;;;;;;9.07;6.25;;;;;;;14.35;76.42;102191.59;4957881;28;20444;-72
2022/07/12 03:28:41;;;;;;;10.57;6.22;;;;;;;14.42;76.37;102193.72;4961746;28;20029;-72
2022/07/12 03:31:06;;;;;;;11.10;5.70;;;;;;;14.44;76.14;102188.97;4991618;28;20041;-72
2022/07/12 03:33:32;;;;;;;8.75;5.75;;;;;;;14.29;76.89;102188.63;4980859;28;20022;-72
2022/07/12 03:35:57;;;;;;;9.02;6.10;;;;;;;14.20;77.43;102201.25;4975253;28;20033;-72
2022/07/12 03:38:22;;;;;;;10.30;6.40;;;;;;;14.14;77.61;102199.13;4989281;28;20541;-72
2022/07/12 03:40:48;;;;;;;10.15;6.80;;;;;;;14.09;77.91;102190.56;4985562;28;20034;-72
2022/07/12 03:43:13;;;;;;;9.52;6.22;;;;;;;14.18;77.87;102206.00;4988029;28;20030;-72
2022/07/12 03:45:40;;;;;;;12.32;6.82;;;;;;;14.12;77.96;102195.69;4988911;28;20022;-72
2022/07/12 03:48:06;;;;;;;8.82;6.18;;;;;;;14.22;77.67;102202.00;4996456;28;20035;-72
2022/07/12 03:50:31;;;;;;;9.57;5.85;;;;;;;14.35;77.38;102216.13;4975055;28;20040;-72
2022/07/12 03:52:56;;;;;;;13.23;6.80;;;;;;;14.18;77.96;102202.44;4968661;28;20037;-72
2022/07/12 03:55:22;;;;;;;9.18;6.10;;;;;;;14.14;78.32;102210.03;4970120;28;20045;-72
2022/07/12 03:57:48;;;;;;;11.23;6.03;;;;;;;14.10;78.68;102203.19;4998015;28;20026;-72
2022/07/12 04:00:14;;;;;;;10.98;6.32;;;;;;;14.29;77.93;102208.56;4998106;28;20054;-72
2022/07/12 04:02:40;;;;;;;14.30;7.15;;;;;;;14.31;78.26;102206.53;4980156;28;20090;-72
2022/07/12 04:05:07;;;;;;;20.05;8.32;;;;;;;14.17;78.96;102209.75;4967757;28;20380;-72
2022/07/12 04:07:33;;;;;;;15.88;8.68;;;;;;;14.18;79.48;102211.44;4988344;28;20058;-72
2022/07/12 04:09:58;;;;;;;12.68;7.18;;;;;;;14.30;79.03;102210.25;4985708;28;20042;-72
2022/07/12 04:12:23;;;;;;;15.20;8.73;;;;;;;14.22;79.30;102212.88;4970588;28;20027;-72
2022/07/12 04:14:49;;;;;;;28.25;9.75;;;;;;;14.38;78.76;102207.63;4989991;28;20112;-72
2022/07/12 04:17:14;;;;;;;12.85;8.00;;;;;;;14.55;78.22;102202.44;4996466;28;20032;-72
2022/07/12 04:19:40;;;;;;;15.25;7.85;;;;;;;14.52;78.38;102208.19;4994348;28;20027;-72
2022/07/12 04:22:05;;;;;;;10.60;7.20;;;;;;;14.59;78.42;102209.28;4973958;28;20035;-72
2022/07/12 04:24:30;;;;;;;15.35;8.57;;;;;;;14.64;78.03;102212.41;4981663;28;20105;-72
2022/07/12 04:26:56;;;;;;;15.60;10.38;;;;;;;14.59;78.55;102206.56;4966679;28;20030;-72
2022/07/12 04:29:21;;;;;;;18.08;8.80;;;;;;;14.54;78.88;102206.16;4983309;28;20035;-72
2022/07/12 04:31:47;;;;;;;16.50;7.68;;;;;;;14.80;77.94;102207.16;4976459;28;20503;-72
2022/07/12 04:34:16;;;;;;;14.50;7.78;;;;;;;14.88;77.63;102204.53;4989723;28;20037;-72
2022/07/12 04:36:43;;;;;;;12.65;7.97;;;;;;;15.01;77.27;102197.84;4974587;28;20021;-72
2022/07/12 04:39:08;;;;;;;12.00;7.82;;;;;;;14.92;77.58;102199.59;4980098;28;20113;-72
2022/07/12 04:41:34;;;;;;;11.25;7.22;;;;;;;15.09;77.27;102200.63;4986290;28;20113;-72
2022/07/12 04:44:03;;;;;;;14.20;8.52;;;;;;;15.18;76.75;102203.28;4987006;28;20030;-72
2022/07/12 04:46:28;;;;;;;12.20;7.90;;;;;;;15.16;77.11;102207.19;4970882;28;20055;-72
2022/07/12 04:48:53;;;;;;;9.25;7.53;;;;;;;15.33;76.42;102203.59;4969593;28;20068;-72
2022/07/12 04:51:19;;;;;;;11.68;7.63;;;;;;;15.56;75.75;102192.19;4986753;28;20084;-72
2022/07/12 04:53:48;;;;;;;10.65;7.95;;;;;;;15.58;75.71;102195.59;4967428;28;20037;-72
2022/07/12 04:56:13;;;;;;;12.05;7.40;;;;;;;15.88;74.66;102197.91;4965768;28;20032;-73
2022/07/12 04:58:39;;;;;;;12.07;7.82;;;;;;;16.01;74.54;102198.34;4961247;28;20084;-73
2022/07/12 05:01:04;;;;;;;13.05;7.40;;;;;;;16.07;73.87;102206.91;4962235;28;20023;-73
2022/07/12 05:03:30;;;;;;;11.88;6.95;;;;;;;16.23;73.71;102201.53;4982107;28;20109;-70
2022/07/12 05:05:56;;;;;;;17.95;7.82;;;;;;;16.11;74.06;102208.31;4962201;28;20042;-71
2022/07/12 05:08:21;;;;;;;13.07;8.57;;;;;;;16.23;73.96;102202.38;4974487;28;20026;-71
2022/07/12 05:10:48;;;;;;;13.02;10.02;;;;;;;16.17;73.97;102202.16;4960783;28;20027;-71
2022/07/12 05:13:13;;;;;;;18.13;11.48;;;;;;;16.00;74.34;102196.63;4972796;28;20149;-71
2022/07/12 05:15:38;;;;;;;16.73;10.75;;;;;;;15.99;74.46;102208.56;4966164;28;20054;-70
2022/07/12 05:18:04;;;;;;;18.90;11.13;;;;;;;16.01;74.40;102220.19;4971901;28;20033;-71
2022/07/12 05:20:30;;;;;;;20.20;10.52;;;;;;;16.17;74.22;102218.56;4963518;28;20108;-71
2022/07/12 05:22:55;;;;;;;11.57;9.45;;;;;;;16.32;73.18;102218.84;4969725;28;20018;-71
2022/07/12 05:25:20;;;;;;;11.85;9.10;;;;;;;16.40;72.54;102224.34;4993107;28;20030;-71
2022/07/12 05:27:46;;;;;;;16.20;9.43;;;;;;;16.51;72.09;102227.66;4973619;28;20029;-70
2022/07/12 05:30:11;;;;;;;10.35;8.70;;;;;;;16.37;71.88;102231.00;4980884;28;20030;-71
2022/07/12 05:32:36;;;;;;;12.57;8.02;;;;;;;16.55;71.20;102229.00;4976087;28;20034;-70
2022/07/12 05:35:02;;;;;;;13.57;7.60;;;;;;;16.25;72.06;102233.16;4968530;28;20018;-71
2022/07/12 05:37:27;;;;;;;11.65;6.85;;;;;;;16.07;72.83;102228.75;4976207;28;20014;-70
2022/07/12 05:39:53;;;;;;;12.32;6.85;;;;;;;16.18;72.82;102231.25;4985536;28;20086;-71
2022/07/12 05:42:19;;;;;;;13.38;6.80;;;;;;;16.46;71.25;102230.00;4971242;28;20026;-71
2022/07/12 05:44:44;;;;;;;10.35;5.63;;;;;;;16.29;72.14;102230.94;4962731;28;20096;-71
2022/07/12 05:47:10;;;;;;;8.02;5.07;;;;;;;16.43;71.76;102230.34;4956609;28;20043;-71
2022/07/12 05:49:35;;;;;;;11.10;5.55;;;;;;;16.47;71.48;102226.25;4969702;28;20049;-71
2022/07/12 05:54:45;;;;;;;7.38;4.70;;;;;;;16.71;70.62;102225.53;4984241;28;20014;-73
2022/07/12 05:57:11;;;;;;;9.10;3.75;;;;;;;16.74;70.52;102227.06;4968494;28;20026;-71
2022/07/12 05:59:36;;;;;;;10.77;3.70;;;;;;;16.76;69.64;102236.00;4976385;28;20034;-70
2022/07/12 06:02:03;;;;;;;5.63;3.80;;;;;;;16.73;70.26;102230.84;4976324;28;20026;-71
2022/07/12 06:04:29;;;;;;;7.75;3.80;;;;;;;16.94;69.63;102224.91;4990923;28;20026;-71
2022/07/12 06:06:55;;;;;;;4.65;3.25;;;;;;;16.76;70.14;102236.00;4970188;28;20030;-71
2022/07/12 06:09:20;;;;;;;4.43;3.50;;;;;;;16.96;70.31;102237.41;4987599;28;20035;-71
2022/07/12 06:11:45;;;;;;;8.05;3.85;;;;;;;17.16;69.18;102231.66;4966248;28;20022;-71
2022/07/12 06:14:11;;;;;;;6.63;3.53;;;;;;;17.16;68.96;102228.91;4988651;28;20018;-71
2022/07/12 06:16:36;;;;;;;6.15;3.42;;;;;;;17.23;68.75;102227.22;4985572;28;20021;-71
2022/07/12 06:19:01;;;;;;;8.43;3.35;;;;;;;17.38;68.28;102225.50;4973597;28;20030;-71
2022/07/12 06:21:27;;;;;;;4.25;3.60;;;;;;;17.50;67.89;102228.75;4988237;28;20026;-71
2022/07/12 06:23:53;;;;;;;9.10;3.90;;;;;;;17.60;67.67;102230.31;4989124;28;20502;-71
2022/07/12 06:26:18;;;;;;;6.45;3.40;;;;;;;17.81;66.96;102232.56;4988431;28;20018;-71
2022/07/12 06:28:43;;;;;;;5.80;3.45;;;;;;;17.49;67.54;102238.88;4970723;28;20019;-71
2022/07/12 06:31:09;;;;;;;9.18;2.95;;;;;;;17.56;67.89;102234.41;4974203;28;20113;-71
2022/07/12 06:33:35;;;;;;;6.40;3.83;;;;;;;18.02;66.39;102234.75;4966532;28;20364;-71
2022/07/12 06:36:00;;;;;;;7.85;2.88;;;;;;;17.82;66.05;102227.94;4961135;28;20026;-70
2022/07/12 06:38:25;;;;;;;6.78;3.10;;;;;;;17.66;66.98;102233.38;4969780;28;20026;-70
2022/07/12 06:40:51;;;;;;;5.68;2.88;;;;;;;17.70;66.94;102229.28;4973065;28;20127;-70
2022/07/12 06:43:16;;;;;;;4.43;3.20;;;;;;;17.87;66.37;102231.00;4971749;28;20018;-70
2022/07/12 06:45:41;;;;;;;5.28;2.92;;;;;;;17.81;66.18;102228.97;4974290;28;20033;-70
2022/07/12 06:48:07;;;;;;;6.53;3.05;;;;;;;17.53;67.32;102223.78;4989354;28;20026;-70
2022/07/12 06:50:33;;;;;;;7.22;2.97;;;;;;;17.74;66.81;102227.94;4970723;28;20019;-70
2022/07/12 06:52:58;;;;;;;5.43;3.15;;;;;;;18.15;65.36;102224.09;4988425;28;20026;-70
2022/07/12 06:55:24;;;;;;;5.43;3.13;;;;;;;18.25;64.97;102223.03;4966608;28;20027;-70
2022/07/12 06:57:49;;;;;;;4.75;2.72;;;;;;;18.25;64.91;102228.50;4945626;28;20018;-70
2022/07/12 07:00:15;;;;;;;6.22;3.45;;;;;;;18.27;65.10;102231.97;4970928;28;20057;-70
2022/07/12 07:02:40;;;;;;;5.47;3.15;;;;;;;18.48;64.25;102223.16;4965743;28;20019;-70
2022/07/12 07:05:07;;;;;;;9.48;3.63;;;;;;;18.41;64.33;102228.47;4955069;28;20049;-70
2022/07/12 07:07:33;;;;;;;5.55;3.20;;;;;;;18.22;64.36;102228.88;4979214;28;20022;-70
2022/07/12 07:09:58;;;;;;;4.18;2.67;;;;;;;17.97;65.47;102231.66;4957081;28;20080;-70
2022/07/12 07:12:24;;;;;;;5.75;3.00;;;;;;;17.90;66.11;102225.19;4981054;28;20122;-70
2022/07/12 07:14:49;;;;;;;5.13;2.65;;;;;;;18.21;64.66;102229.91;4956394;28;20019;-70
2022/07/12 07:17:19;;;;;;;4.60;2.50;;;;;;;18.14;64.58;102233.34;4967202;28;20033;-70
2022/07/12 07:19:45;;;;;;;5.38;2.50;;;;;;;17.85;65.45;102227.56;4951984;28;20023;-70
2022/07/12 07:22:12;;;;;;;6.55;2.90;;;;;;;17.85;65.04;102233.06;4975554;28;20181;-70
2022/07/12 07:24:37;;;;;;;4.95;3.00;;;;;;;17.76;65.57;102231.38;4972766;28;20026;-70
2022/07/12 07:27:03;;;;;;;8.15;3.05;;;;;;;17.68;65.98;102223.13;4961633;28;20022;-70
2022/07/12 07:32:13;;;;;;;6.75;2.53;;;;;;;17.96;65.43;102213.53;4982603;28;20022;-69
2022/07/12 07:34:38;;;;;;;4.60;2.75;;;;;;;18.23;64.06;102205.91;4952141;28;20054;-70
2022/07/12 07:37:04;;;;;;;4.45;2.65;;;;;;;18.30;63.72;102209.66;4952010;28;20050;-70
2022/07/12 07:39:30;;;;;;;6.65;3.28;;;;;;;18.51;63.38;102206.31;4964653;28;20476;-70
2022/07/12 07:41:55;;;;;;;4.55;2.70;;;;;;;18.26;64.40;102205.56;4974446;28;20053;-72
2022/07/12 07:44:20;;;;;;;3.92;2.88;;;;;;;18.25;63.89;102217.56;4958146;28;20034;-70
2022/07/12 07:46:46;;;;;;;5.70;2.55;;;;;;;18.20;64.30;102214.50;4951305;28;20027;-70
2022/07/12 07:49:11;;;;;;;5.03;2.88;;;;;;;18.10;64.80;102225.66;4954569;28;20128;-70
2022/07/12 07:51:37;;;;;;;6.43;2.45;;;;;;;18.36;64.48;102231.75;4980182;28;20022;-70
2022/07/12 07:54:02;;;;;;;3.90;2.47;;;;;;;18.93;61.43;102227.94;4961267;28;20550;-70
2022/07/12 07:56:28;;;;;;;7.68;3.53;;;;;;;18.52;62.85;102236.34;4959497;28;20034;-71
2022/07/12 07:58:54;;;;;;;7.00;3.75;;;;;;;18.57;63.37;102233.88;4982491;28;20022;-71
2022/07/12 08:01:19;;;;;;;4.57;3.13;;;;;;;18.80;62.30;102227.66;4957676;28;20031;-69
2022/07/12 08:03:44;;;;;;;6.68;3.30;;;;;;;18.46;63.55;102226.06;4966457;28;20029;-69
2022/07/12 08:06:10;;;;;;;5.00;3.35;;;;;;;18.58;63.00;102230.13;4974035;28;20022;-69
2022/07/12 08:08:35;;;;;;;5.25;2.70;;;;;;;18.82;62.46;102233.81;4957355;28;20026;-69
2022/07/12 08:11:01;;;;;;;7.07;2.70;;;;;;;18.98;62.00;102247.47;4953606;28;20566;-69
2022/07/12 08:13:26;;;;;;;5.20;3.30;;;;;;;19.14;61.60;102230.88;4966980;28;20026;-69
2022/07/12 08:15:51;;;;;;;7.93;2.55;;;;;;;19.39;60.56;102233.47;4971171;28;20025;-69
2022/07/12 08:18:17;;;;;;;9.73;2.75;;;;;;;19.68;59.47;102228.09;4962379;28;20026;-69
2022/07/12 08:20:42;;;;;;;6.55;2.97;;;;;;;19.67;59.22;102237.38;4965718;28;20022;-69
2022/07/12 08:23:08;;;;;;;4.30;2.60;;;;;;;19.74;60.21;102237.50;4981372;28;20022;-69
2022/07/12 08:25:34;;;;;;;5.40;3.17;;;;;;;19.37;61.05;102230.06;4978429;28;20543;-70
2022/07/12 08:28:00;;;;;;;7.20;3.35;;;;;;;19.19;61.74;102244.94;4983190;28;20110;-70
2022/07/12 08:30:25;;;;;;;8.05;2.65;;;;;;;19.57;60.58;102236.75;4981602;28;20086;-71
2022/07/12 08:32:51;;;;;;;10.55;3.05;;;;;;;19.20;61.44;102241.16;4960951;28;20034;-70
2022/07/12 08:35:16;;;;;;;7.60;2.78;;;;;;;19.48;60.45;102244.19;4981831;28;20534;-69
2022/07/12 08:37:42;;;;;;;4.88;2.50;;;;;;;19.70;59.98;102247.16;4977485;28;20026;-70
2022/07/12 08:40:08;;;;;;;7.15;2.90;;;;;;;19.83;60.49;102230.03;4968815;28;20042;-69
2022/07/12 08:42:34;;;;;;;4.20;2.95;;;;;;;19.84;60.29;102242.75;4972589;28;20031;-70
2022/07/12 08:45:00;;;;;;;5.38;2.60;;;;;;;19.79;60.23;102235.91;4954801;28;20056;-70
2022/07/12 08:47:25;;;;;;;7.90;3.10;;;;;;;20.14;59.14;102236.22;4959995;28;20369;-70
2022/07/12 08:50:10;;;;;;;21.48;2.83;;;;;;;19.76;60.05;102241.78;4965405;28;20030;-70
2022/07/12 08:52:39;;;;;;;5.78;3.28;;;;;;;19.30;61.99;102234.53;4983863;28;20034;-70
2022/07/12 08:55:16;;;;;;;9.95;3.83;;;;;;;19.50;60.92;102224.81;4975523;28;20033;-69
2022/07/12 08:57:42;;;;;;;5.03;2.45;;;;;;;19.98;60.12;102222.66;4970578;28;20081;-70
2022/07/12 09:00:08;;;;;;;5.30;2.33;;;;;;;20.16;58.20;102236.91;4963471;28;20034;-70
2022/07/12 09:02:45;;;;;;;5.30;2.78;;;;;;;19.98;58.79;102228.16;4971115;28;20037;-70
2022/07/12 09:05:11;;;;;;;11.82;2.83;;;;;;;20.01;58.72;102227.78;4959722;28;20040;-70
2022/07/12 09:07:37;;;;;;;4.45;2.55;;;;;;;20.62;57.31;102223.00;4979238;28;20026;-70
2022/07/12 09:10:12;;;;;;;5.68;2.30;;;;;;;20.66;57.72;102216.03;4970937;28;20038;-69
2022/07/12 09:12:38;;;;;;;4.43;2.13;;;;;;;20.94;57.13;102216.19;4966533;28;20037;-70
2022/07/12 09:15:10;;;;;;;8.50;2.70;;;;;;;20.34;57.71;102231.03;4979463;28;20045;-70
2022/07/12 09:17:36;;;;;;;3.47;2.20;;;;;;;20.48;58.01;102212.88;4958733;28;20486;-70
2022/07/12 09:20:02;;;;;;;2.95;2.00;;;;;;;21.22;56.40;102227.31;4973985;28;20027;-71
2022/07/12 09:22:28;;;;;;;4.90;2.50;;;;;;;20.67;56.24;102234.28;4960596;28;20022;-70
2022/07/12 09:24:53;;;;;;;3.13;2.28;;;;;;;19.93;59.07;102239.72;4964196;28;20045;-70
2022/07/12 09:27:25;;;;;;;3.80;2.17;;;;;;;20.50;57.97;102230.03;4956273;28;20328;-70
2022/07/12 09:29:51;;;;;;;7.75;2.33;;;;;;;21.13;55.93;102228.50;4954069;28;20026;-70
2022/07/12 09:37:46;;;;;;;6.30;2.13;;;;;;;21.89;53.35;102226.88;4967083;28;20023;-71
2022/07/12 09:40:12;;;;;;;4.28;1.90;;;;;;;21.74;54.29;102231.66;4972428;28;20046;-71
2022/07/12 09:42:40;;;;;;;6.38;2.25;;;;;;;21.12;55.07;102232.25;4957561;28;20134;-71
2022/07/12 09:45:07;;;;;;;3.80;2.58;;;;;;;20.99;56.11;102232.13;4955331;28;20038;-71
2022/07/12 09:47:33;;;;;;;5.07;2.38;;;;;;;20.98;55.58;102230.41;4954948;28;20052;-71
2022/07/12 09:49:58;;;;;;;2.67;1.95;;;;;;;21.12;53.66;102221.25;4981577;28;20408;-72
2022/07/12 09:52:28;;;;;;;3.85;2.22;;;;;;;21.64;53.11;102217.34;4978401;28;20018;-71
2022/07/12 09:54:55;;;;;;;5.65;2.70;;;;;;;21.40;53.38;102219.47;4957110;28;20081;-71
2022/07/12 09:57:27;;;;;;;2.47;1.60;;;;;;;21.76;52.25;102224.03;4981776;28;20026;-71
2022/07/12 09:59:53;;;;;;;4.22;2.05;;;;;;;21.93;52.36;102216.31;4954878;28;20026;-71
2022/07/12 10:02:21;;;;;;;4.25;2.20;;;;;;;21.73;52.83;102218.91;4977936;28;20025;-71
2022/07/12 10:04:47;;;;;;;2.85;2.15;;;;;;;22.29;51.48;102216.16;4956676;28;20058;-71
2022/07/12 10:07:15;;;;;;;5.60;2.10;;;;;;;22.65;50.92;102209.56;4957169;28;20023;-71
2022/07/12 10:09:41;;;;;;;4.50;2.42;;;;;;;22.78;50.75;102222.56;4960486;28;20015;-71
2022/07/12 10:12:09;;;;;;;2.28;1.92;;;;;;;22.61;49.25;102208.25;4952758;28;20026;-71
2022/07/12 10:14:36;;;;;;;9.77;1.70;;;;;;;22.74;49.55;102208.31;4982525;28;20038;-71
2022/07/12 10:17:03;;;;;;;6.95;2.55;;;;;;;22.28;49.75;102211.69;4975794;28;20281;-72
2022/07/12 10:19:34;;;;;;;5.10;1.85;;;;;;;22.20;50.39;102214.63;4958423;28;20057;-71
2022/07/12 10:22:01;;;;;;;4.10;1.93;;;;;;;22.58;50.08;102200.41;4960074;28;20114;-73
2022/07/12 10:24:32;;;;;;;6.20;1.70;;;;;;;23.05;49.11;102210.56;4979308;28;20272;-71
2022/07/12 10:27:19;;;;;;;;;;;;;;;22.94;49.52;102209.25;4957598;28;20019;-71
2022/07/12 10:29:47;;;;;;;2.83;1.80;;;;;;;23.45;48.26;102197.66;4966967;28;19920;-71
2022/07/12 10:32:34;;;;;;;2.80;1.58;;;;;;;23.66;48.00;102198.56;4973954;28;20037;-71
2022/07/12 10:35:00;;;;;;;2.47;1.60;;;;;;;23.91;48.08;102202.38;4984122;28;20030;-71
2022/07/12 10:37:26;;;;;;;2.80;1.90;;;;;;;23.63;47.47;102210.06;4958295;28;20387;-71
2022/07/12 10:40:12;;;;;;;4.25;2.05;;;;;;;22.48;50.08;102201.59;4976781;28;20364;-71
2022/07/12 10:42:38;;;;;;;2.83;1.60;;;;;;;23.54;48.30;102201.94;4970772;28;20073;-73
2022/07/12 10:45:14;;;;;;;5.18;1.98;;;;;;;23.55;47.67;102187.06;4961970;28;20050;-73
2022/07/12 10:48:03;;;;;;;4.22;1.90;;;;;;;23.32;48.00;102196.81;4976221;28;20132;-73
2022/07/12 10:50:41;;;;;;;5.35;1.83;;;;;;;23.18;48.98;102198.72;4956252;28;20019;-72
2022/07/12 10:53:19;;;;;;;4.47;1.70;;;;;;;23.46;48.37;102193.84;4954487;28;20027;-72
2022/07/12 10:56:03;;;;;;;6.00;1.60;;;;;;;23.78;47.78;102192.19;4976910;28;20033;-72
2022/07/12 10:58:34;;;;;;;2.05;1.75;;;;;;;24.16;47.18;102193.41;4959202;28;20025;-72
2022/07/12 11:01:03;;;;;;;7.65;1.92;;;;;;;23.46;47.82;102193.84;4979322;28;20022;-72
2022/07/12 11:03:36;;;;;;;4.00;1.85;;;;;;;23.09;48.90;102191.69;4963797;28;20033;-72
2022/07/12 11:06:06;;;;;;;5.22;1.98;;;;;;;23.18;48.73;102191.25;4957254;28;20044;-72
2022/07/12 11:08:34;;;;;;;4.13;1.35;;;;;;;23.79;47.10;102188.34;4956720;28;20022;-72
2022/07/12 11:11:00;;;;;;;3.30;1.83;;;;;;;23.19;49.37;102181.06;4959561;28;20026;-72
2022/07/12 11:13:25;;;;;;;1.95;1.58;;;;;;;24.08;46.73;102177.88;4953667;28;20038;-72
2022/07/12 11:16:00;;;;;;;3.05;1.45;;;;;;;24.95;45.04;102170.94;4958868;28;20033;-72
2022/07/12 11:18:34;;;;;;;2.13;1.40;;;;;;;24.81;44.32;102180.41;4971339;28;20026;-72
2022/07/12 11:21:01;;;;;;;2.53;1.60;;;;;;;23.88;46.81;102180.69;4969324;28;20081;-72
2022/07/12 11:23:27;;;;;;;4.10;1.52;;;;;;;24.80;45.57;102178.72;4979047;28;20026;-72
2022/07/12 11:25:58;;;;;;;4.50;1.48;;;;;;;24.00;47.02;102167.06;4957088;28;20019;-72
2022/07/12 11:28:24;;;;;;;2.72;1.70;;;;;;;24.84;45.32;102163.31;4959241;28;20033;-72
2022/07/12 11:31:00;;;;;;;3.15;1.35;;;;;;;24.84;45.07;102166.09;4955406;28;20231;-72
2022/07/12 11:33:26;;;;;;;4.90;1.50;;;;;;;25.75;44.03;102160.16;4979310;28;20475;-72